sensor_id;sensor_type;location;lat;lon;timestamp;P1;durP1;ratioP1;P2;durP2;ratioP2
16246;SDS011;8231;50.866;7.944;2023-05-07T00:00:18;3.55;;;1.80;;
16246;SDS011;8231;50.866;7.944;2023-05-07T00:02:46;4.50;;;1.75;;
16246;SDS011;8231;50.866;7.944;2023-05-07T00:05:15;4.63;;;2.95;;
16246;SDS011;8231;50.866;7.944;2023-05-07T00:07:44;2.13;;;1.92;;
16246;SDS011;8231;50.866;7.944;2023-05-07T00:10:12;2.55;;;2.10;;
16246;SDS011;8231;50.866;7.944;2023-05-07T00:13:02;2.17;;;1.98;;
16246;SDS011;8231;50.866;7.944;2023-05-07T00:15:32;3.25;;;2.08;;
16246;SDS011;8231;50.866;7.944;2023-05-07T00:18:00;2.22;;;2.03;;
16246;SDS011;8231;50.866;7.944;2023-05-07T00:20:28;1.50;;;1.40;;
16246;SDS011;8231;50.866;7.944;2023-05-07T00:22:56;2.50;;;2.30;;
16246;SDS011;8231;50.866;7.944;2023-05-07T00:25:25;2.20;;;1.92;;
16246;SDS011;8231;50.866;7.944;2023-05-07T00:27:53;7.07;;;2.05;;
16246;SDS011;8231;50.866;7.944;2023-05-07T00:30:21;2.83;;;1.95;;
16246;SDS011;8231;50.866;7.944;2023-05-07T00:32:51;2.10;;;2.00;;
16246;SDS011;8231;50.866;7.944;2023-05-07T00:35:19;1.95;;;1.75;;
16246;SDS011;8231;50.866;7.944;2023-05-07T00:37:47;2.10;;;2.00;;
16246;SDS011;8231;50.866;7.944;2023-05-07T00:40:16;2.70;;;1.73;;
16246;SDS011;8231;50.866;7.944;2023-05-07T00:42:44;2.15;;;1.95;;
16246;SDS011;8231;50.866;7.944;2023-05-07T00:45:14;3.85;;;2.08;;
16246;SDS011;8231;50.866;7.944;2023-05-07T00:51:58;2.63;;;2.13;;
16246;SDS011;8231;50.866;7.944;2023-05-07T00:54:27;2.50;;;2.30;;
16246;SDS011;8231;50.866;7.944;2023-05-07T00:56:55;3.13;;;1.98;;
16246;SDS011;8231;50.866;7.944;2023-05-07T00:59:23;3.92;;;1.98;;
16246;SDS011;8231;50.866;7.944;2023-05-07T01:01:52;4.18;;;2.53;;
16246;SDS011;8231;50.866;7.944;2023-05-07T01:04:20;2.95;;;2.20;;
16246;SDS011;8231;50.866;7.944;2023-05-07T01:06:49;3.75;;;2.00;;
16246;SDS011;8231;50.866;7.944;2023-05-07T01:09:20;3.67;;;1.95;;
16246;SDS011;8231;50.866;7.944;2023-05-07T01:11:48;3.88;;;2.33;;
16246;SDS011;8231;50.866;7.944;2023-05-07T01:14:18;2.13;;;1.90;;
16246;SDS011;8231;50.866;7.944;2023-05-07T01:16:47;2.83;;;1.88;;
16246;SDS011;8231;50.866;7.944;2023-05-07T01:19:19;2.63;;;2.13;;
16246;SDS011;8231;50.866;7.944;2023-05-07T01:21:48;2.00;;;1.90;;
16246;SDS011;8231;50.866;7.944;2023-05-07T01:24:21;2.00;;;1.90;;
16246;SDS011;8231;50.866;7.944;2023-05-07T01:26:50;2.67;;;2.05;;
16246;SDS011;8231;50.866;7.944;2023-05-07T01:29:18;3.10;;;2.40;;
16246;SDS011;8231;50.866;7.944;2023-05-07T01:31:47;2.72;;;2.53;;
16246;SDS011;8231;50.866;7.944;2023-05-07T01:34:18;2.15;;;1.98;;
16246;SDS011;8231;50.866;7.944;2023-05-07T01:36:49;2.60;;;2.20;;
16246;SDS011;8231;50.866;7.944;2023-05-07T01:39:17;2.85;;;2.30;;
16246;SDS011;8231;50.866;7.944;2023-05-07T01:41:47;3.40;;;2.70;;
16246;SDS011;8231;50.866;7.944;2023-05-07T01:44:16;2.50;;;2.15;;
16246;SDS011;8231;50.866;7.944;2023-05-07T01:46:45;4.93;;;2.60;;
16246;SDS011;8231;50.866;7.944;2023-05-07T01:49:15;3.10;;;2.30;;
16246;SDS011;8231;50.866;7.944;2023-05-07T01:51:44;3.97;;;2.30;;
16246;SDS011;8231;50.866;7.944;2023-05-07T01:54:12;2.75;;;2.55;;
16246;SDS011;8231;50.866;7.944;2023-05-07T01:56:41;3.88;;;2.75;;
16246;SDS011;8231;50.866;7.944;2023-05-07T01:59:10;3.70;;;2.10;;
16246;SDS011;8231;50.866;7.944;2023-05-07T02:01:39;2.40;;;2.20;;
16246;SDS011;8231;50.866;7.944;2023-05-07T02:04:09;2.40;;;2.20;;
16246;SDS011;8231;50.866;7.944;2023-05-07T02:06:38;2.58;;;2.38;;
16246;SDS011;8231;50.866;7.944;2023-05-07T02:09:10;3.28;;;2.55;;
16246;SDS011;8231;50.866;7.944;2023-05-07T02:11:41;3.25;;;2.35;;
16246;SDS011;8231;50.866;7.944;2023-05-07T02:14:11;2.63;;;1.95;;
16246;SDS011;8231;50.866;7.944;2023-05-07T02:16:39;2.30;;;2.10;;
16246;SDS011;8231;50.866;7.944;2023-05-07T02:19:09;2.50;;;2.30;;
16246;SDS011;8231;50.866;7.944;2023-05-07T02:21:37;2.83;;;2.38;;
16246;SDS011;8231;50.866;7.944;2023-05-07T02:24:06;3.20;;;2.42;;
16246;SDS011;8231;50.866;7.944;2023-05-07T02:26:34;2.90;;;2.60;;
16246;SDS011;8231;50.866;7.944;2023-05-07T02:29:03;2.78;;;2.58;;
16246;SDS011;8231;50.866;7.944;2023-05-07T02:31:33;3.78;;;2.72;;
16246;SDS011;8231;50.866;7.944;2023-05-07T02:34:01;5.43;;;2.92;;
16246;SDS011;8231;50.866;7.944;2023-05-07T02:36:30;3.05;;;2.70;;
16246;SDS011;8231;50.866;7.944;2023-05-07T02:39:04;2.50;;;2.28;;
16246;SDS011;8231;50.866;7.944;2023-05-07T02:41:32;2.38;;;2.13;;
16246;SDS011;8231;50.866;7.944;2023-05-07T02:44:00;3.40;;;3.10;;
16246;SDS011;8231;50.866;7.944;2023-05-07T02:46:29;3.03;;;2.83;;
16246;SDS011;8231;50.866;7.944;2023-05-07T02:49:04;2.70;;;2.50;;
16246;SDS011;8231;50.866;7.944;2023-05-07T02:51:33;2.88;;;2.67;;
16246;SDS011;8231;50.866;7.944;2023-05-07T02:54:05;2.88;;;2.50;;
16246;SDS011;8231;50.866;7.944;2023-05-07T02:56:33;3.05;;;2.38;;
16246;SDS011;8231;50.866;7.944;2023-05-07T02:59:01;2.90;;;2.60;;
16246;SDS011;8231;50.866;7.944;2023-05-07T03:01:33;4.22;;;3.33;;
16246;SDS011;8231;50.866;7.944;2023-05-07T03:04:05;5.25;;;3.17;;
16246;SDS011;8231;50.866;7.944;2023-05-07T03:06:34;4.40;;;2.85;;
16246;SDS011;8231;50.866;7.944;2023-05-07T03:09:02;3.58;;;2.88;;
16246;SDS011;8231;50.866;7.944;2023-05-07T03:11:30;3.30;;;2.75;;
16246;SDS011;8231;50.866;7.944;2023-05-07T03:13:59;3.38;;;3.00;;
16246;SDS011;8231;50.866;7.944;2023-05-07T03:16:28;5.60;;;3.00;;
16246;SDS011;8231;50.866;7.944;2023-05-07T03:18:56;3.30;;;2.60;;
16246;SDS011;8231;50.866;7.944;2023-05-07T03:21:26;4.03;;;2.78;;
16246;SDS011;8231;50.866;7.944;2023-05-07T03:23:54;4.50;;;3.13;;
16246;SDS011;8231;50.866;7.944;2023-05-07T03:26:22;3.20;;;2.90;;
16246;SDS011;8231;50.866;7.944;2023-05-07T03:28:51;3.45;;;2.50;;
16246;SDS011;8231;50.866;7.944;2023-05-07T03:31:19;5.82;;;2.95;;
16246;SDS011;8231;50.866;7.944;2023-05-07T03:33:51;4.20;;;2.95;;
16246;SDS011;8231;50.866;7.944;2023-05-07T03:36:21;3.95;;;2.95;;
16246;SDS011;8231;50.866;7.944;2023-05-07T03:38:51;2.75;;;2.42;;
16246;SDS011;8231;50.866;7.944;2023-05-07T03:41:22;2.70;;;2.50;;
16246;SDS011;8231;50.866;7.944;2023-05-07T03:43:50;3.28;;;2.97;;
16246;SDS011;8231;50.866;7.944;2023-05-07T03:46:19;3.47;;;3.03;;
16246;SDS011;8231;50.866;7.944;2023-05-07T03:48:47;4.35;;;2.92;;
16246;SDS011;8231;50.866;7.944;2023-05-07T03:51:18;4.15;;;3.17;;
16246;SDS011;8231;50.866;7.944;2023-05-07T03:53:47;5.07;;;3.35;;
16246;SDS011;8231;50.866;7.944;2023-05-07T03:56:17;4.32;;;3.00;;
16246;SDS011;8231;50.866;7.944;2023-05-07T03:58:50;3.22;;;2.92;;
16246;SDS011;8231;50.866;7.944;2023-05-07T04:01:18;3.58;;;3.28;;
16246;SDS011;8231;50.866;7.944;2023-05-07T04:03:47;4.05;;;3.47;;
16246;SDS011;8231;50.866;7.944;2023-05-07T04:24:03;4.93;;;2.92;;
16246;SDS011;8231;50.866;7.944;2023-05-07T04:26:32;4.10;;;3.42;;
16246;SDS011;8231;50.866;7.944;2023-05-07T04:29:00;2.95;;;2.58;;
16246;SDS011;8231;50.866;7.944;2023-05-07T04:31:32;4.78;;;3.63;;
16246;SDS011;8231;50.866;7.944;2023-05-07T04:34:01;3.83;;;3.47;;
16246;SDS011;8231;50.866;7.944;2023-05-07T04:36:30;4.18;;;3.17;;
16246;SDS011;8231;50.866;7.944;2023-05-07T04:39:04;3.53;;;3.22;;
16246;SDS011;8231;50.866;7.944;2023-05-07T04:41:33;4.07;;;3.33;;
16246;SDS011;8231;50.866;7.944;2023-05-07T04:44:05;4.05;;;3.42;;
16246;SDS011;8231;50.866;7.944;2023-05-07T04:46:34;5.07;;;3.78;;
16246;SDS011;8231;50.866;7.944;2023-05-07T04:49:02;5.85;;;2.95;;
16246;SDS011;8231;50.866;7.944;2023-05-07T04:51:32;6.82;;;3.85;;
16246;SDS011;8231;50.866;7.944;2023-05-07T04:54:00;7.00;;;3.58;;
16246;SDS011;8231;50.866;7.944;2023-05-07T04:56:31;4.78;;;3.40;;
16246;SDS011;8231;50.866;7.944;2023-05-07T04:59:01;3.63;;;3.33;;
16246;SDS011;8231;50.866;7.944;2023-05-07T05:01:30;3.42;;;3.22;;
16246;SDS011;8231;50.866;7.944;2023-05-07T05:03:58;3.72;;;3.42;;
16246;SDS011;8231;50.866;7.944;2023-05-07T05:06:28;3.67;;;3.38;;
16246;SDS011;8231;50.866;7.944;2023-05-07T05:08:57;5.10;;;3.70;;
16246;SDS011;8231;50.866;7.944;2023-05-07T05:11:26;3.17;;;2.97;;
16246;SDS011;8231;50.866;7.944;2023-05-07T05:13:55;4.10;;;3.70;;
16246;SDS011;8231;50.866;7.944;2023-05-07T05:16:23;3.83;;;3.42;;
16246;SDS011;8231;50.866;7.944;2023-05-07T05:18:52;6.50;;;3.45;;
16246;SDS011;8231;50.866;7.944;2023-05-07T05:21:21;4.45;;;4.05;;
16246;SDS011;8231;50.866;7.944;2023-05-07T05:23:53;4.18;;;3.78;;
16246;SDS011;8231;50.866;7.944;2023-05-07T05:26:24;5.80;;;3.63;;
16246;SDS011;8231;50.866;7.944;2023-05-07T05:28:52;4.72;;;3.83;;
16246;SDS011;8231;50.866;7.944;2023-05-07T05:31:24;4.43;;;3.50;;
16246;SDS011;8231;50.866;7.944;2023-05-07T05:33:52;5.00;;;3.70;;
16246;SDS011;8231;50.866;7.944;2023-05-07T05:36:21;5.68;;;3.65;;
16246;SDS011;8231;50.866;7.944;2023-05-07T05:38:52;4.03;;;3.72;;
16246;SDS011;8231;50.866;7.944;2023-05-07T05:41:21;4.43;;;3.80;;
16246;SDS011;8231;50.866;7.944;2023-05-07T05:43:49;4.47;;;3.78;;
16246;SDS011;8231;50.866;7.944;2023-05-07T05:46:18;4.47;;;3.92;;
16246;SDS011;8231;50.866;7.944;2023-05-07T05:48:51;6.15;;;3.67;;
16246;SDS011;8231;50.866;7.944;2023-05-07T05:51:20;3.80;;;3.40;;
16246;SDS011;8231;50.866;7.944;2023-05-07T05:53:49;3.75;;;3.45;;
16246;SDS011;8231;50.866;7.944;2023-05-07T05:56:18;4.95;;;3.72;;
16246;SDS011;8231;50.866;7.944;2023-05-07T05:58:47;4.28;;;3.60;;
16246;SDS011;8231;50.866;7.944;2023-05-07T06:01:16;4.43;;;3.75;;
16246;SDS011;8231;50.866;7.944;2023-05-07T06:03:47;3.50;;;3.20;;
16246;SDS011;8231;50.866;7.944;2023-05-07T06:06:17;4.65;;;3.53;;
16246;SDS011;8231;50.866;7.944;2023-05-07T06:08:46;4.03;;;3.67;;
16246;SDS011;8231;50.866;7.944;2023-05-07T06:11:19;4.38;;;3.97;;
16246;SDS011;8231;50.866;7.944;2023-05-07T06:13:47;4.28;;;3.33;;
16246;SDS011;8231;50.866;7.944;2023-05-07T06:16:16;5.28;;;4.25;;
16246;SDS011;8231;50.866;7.944;2023-05-07T06:18:44;4.70;;;4.22;;
16246;SDS011;8231;50.866;7.944;2023-05-07T06:21:14;7.88;;;3.90;;
16246;SDS011;8231;50.866;7.944;2023-05-07T06:23:44;5.70;;;4.18;;
16246;SDS011;8231;50.866;7.944;2023-05-07T06:26:13;4.50;;;4.05;;
16246;SDS011;8231;50.866;7.944;2023-05-07T06:28:45;4.53;;;4.22;;
16246;SDS011;8231;50.866;7.944;2023-05-07T06:31:15;5.25;;;4.00;;
16246;SDS011;8231;50.866;7.944;2023-05-07T06:33:50;4.43;;;4.03;;
16246;SDS011;8231;50.866;7.944;2023-05-07T06:36:22;5.38;;;4.88;;
16246;SDS011;8231;50.866;7.944;2023-05-07T06:38:53;4.93;;;4.53;;
16246;SDS011;8231;50.866;7.944;2023-05-07T06:41:22;5.47;;;5.07;;
16246;SDS011;8231;50.866;7.944;2023-05-07T06:43:50;4.95;;;4.47;;
16246;SDS011;8231;50.866;7.944;2023-05-07T06:46:51;6.90;;;5.13;;
16246;SDS011;8231;50.866;7.944;2023-05-07T06:49:19;6.13;;;4.93;;
16246;SDS011;8231;50.866;7.944;2023-05-07T06:51:48;5.10;;;4.70;;
16246;SDS011;8231;50.866;7.944;2023-05-07T06:54:19;4.68;;;4.28;;
16246;SDS011;8231;50.866;7.944;2023-05-07T06:56:50;4.82;;;4.40;;
16246;SDS011;8231;50.866;7.944;2023-05-07T06:59:19;5.38;;;4.70;;
16246;SDS011;8231;50.866;7.944;2023-05-07T07:01:47;4.82;;;4.40;;
16246;SDS011;8231;50.866;7.944;2023-05-07T07:04:16;5.03;;;4.60;;
16246;SDS011;8231;50.866;7.944;2023-05-07T07:06:52;6.93;;;4.50;;
16246;SDS011;8231;50.866;7.944;2023-05-07T07:09:23;4.93;;;4.53;;
16246;SDS011;8231;50.866;7.944;2023-05-07T07:11:52;4.68;;;4.28;;
16246;SDS011;8231;50.866;7.944;2023-05-07T07:14:21;4.85;;;4.45;;
16246;SDS011;8231;50.866;7.944;2023-05-07T07:16:51;4.05;;;3.65;;
16246;SDS011;8231;50.866;7.944;2023-05-07T07:19:21;4.97;;;4.57;;
16246;SDS011;8231;50.866;7.944;2023-05-07T07:21:52;4.70;;;4.28;;
16246;SDS011;8231;50.866;7.944;2023-05-07T07:24:21;9.43;;;4.30;;
16246;SDS011;8231;50.866;7.944;2023-05-07T07:26:55;4.53;;;4.13;;
16246;SDS011;8231;50.866;7.944;2023-05-07T07:29:25;4.50;;;3.70;;
16246;SDS011;8231;50.866;7.944;2023-05-07T07:31:54;5.00;;;3.67;;
16246;SDS011;8231;50.866;7.944;2023-05-07T07:34:23;4.10;;;3.80;;
16246;SDS011;8231;50.866;7.944;2023-05-07T07:36:51;4.40;;;4.00;;
16246;SDS011;8231;50.866;7.944;2023-05-07T07:39:20;4.80;;;4.40;;
16246;SDS011;8231;50.866;7.944;2023-05-07T07:41:51;4.40;;;3.97;;
16246;SDS011;8231;50.866;7.944;2023-05-07T07:44:21;5.13;;;4.55;;
16246;SDS011;8231;50.866;7.944;2023-05-07T07:46:56;4.15;;;3.80;;
16246;SDS011;8231;50.866;7.944;2023-05-07T07:49:25;4.65;;;4.20;;
16246;SDS011;8231;50.866;7.944;2023-05-07T07:51:56;4.85;;;3.92;;
16246;SDS011;8231;50.866;7.944;2023-05-07T07:54:26;3.78;;;3.53;;
16246;SDS011;8231;50.866;7.944;2023-05-07T07:56:55;4.80;;;3.50;;
16246;SDS011;8231;50.866;7.944;2023-05-07T07:59:25;5.20;;;3.65;;
16246;SDS011;8231;50.866;7.944;2023-05-07T08:01:54;4.32;;;3.55;;
16246;SDS011;8231;50.866;7.944;2023-05-07T08:04:25;4.38;;;4.07;;
16246;SDS011;8231;50.866;7.944;2023-05-07T08:06:55;6.45;;;3.95;;
16246;SDS011;8231;50.866;7.944;2023-05-07T08:09:24;5.30;;;3.65;;
16246;SDS011;8231;50.866;7.944;2023-05-07T08:11:54;4.05;;;3.65;;
16246;SDS011;8231;50.866;7.944;2023-05-07T08:14:22;4.32;;;3.92;;
16246;SDS011;8231;50.866;7.944;2023-05-07T08:16:52;4.20;;;3.90;;
16246;SDS011;8231;50.866;7.944;2023-05-07T08:19:21;4.45;;;4.05;;
16246;SDS011;8231;50.866;7.944;2023-05-07T08:21:50;4.55;;;4.15;;
16246;SDS011;8231;50.866;7.944;2023-05-07T08:24:19;4.28;;;3.90;;
16246;SDS011;8231;50.866;7.944;2023-05-07T08:26:48;4.72;;;4.25;;
16246;SDS011;8231;50.866;7.944;2023-05-07T08:29:17;4.32;;;3.92;;
16246;SDS011;8231;50.866;7.944;2023-05-07T08:31:46;6.35;;;3.92;;
16246;SDS011;8231;50.866;7.944;2023-05-07T08:34:16;5.07;;;4.20;;
16246;SDS011;8231;50.866;7.944;2023-05-07T08:36:47;6.13;;;4.65;;
16246;SDS011;8231;50.866;7.944;2023-05-07T08:39:18;4.32;;;3.95;;
16246;SDS011;8231;50.866;7.944;2023-05-07T08:41:48;4.72;;;4.15;;
16246;SDS011;8231;50.866;7.944;2023-05-07T08:44:22;4.10;;;3.70;;
16246;SDS011;8231;50.866;7.944;2023-05-07T08:46:56;6.07;;;4.07;;
16246;SDS011;8231;50.866;7.944;2023-05-07T08:49:28;4.82;;;3.92;;
16246;SDS011;8231;50.866;7.944;2023-05-07T08:51:56;4.43;;;4.03;;
16246;SDS011;8231;50.866;7.944;2023-05-07T08:54:26;4.10;;;3.67;;
16246;SDS011;8231;50.866;7.944;2023-05-07T08:56:57;3.83;;;3.53;;
16246;SDS011;8231;50.866;7.944;2023-05-07T08:59:26;6.43;;;4.10;;
16246;SDS011;8231;50.866;7.944;2023-05-07T09:01:54;4.07;;;3.75;;
16246;SDS011;8231;50.866;7.944;2023-05-07T09:04:23;3.53;;;3.30;;
16246;SDS011;8231;50.866;7.944;2023-05-07T09:06:52;3.45;;;3.25;;
16246;SDS011;8231;50.866;7.944;2023-05-07T09:09:22;3.70;;;3.40;;
16246;SDS011;8231;50.866;7.944;2023-05-07T09:11:56;5.28;;;3.50;;
16246;SDS011;8231;50.866;7.944;2023-05-07T09:14:28;7.22;;;3.90;;
16246;SDS011;8231;50.866;7.944;2023-05-07T09:16:57;3.75;;;3.45;;
16246;SDS011;8231;50.866;7.944;2023-05-07T09:19:26;4.88;;;3.92;;
16246;SDS011;8231;50.866;7.944;2023-05-07T09:21:59;5.80;;;3.53;;
16246;SDS011;8231;50.866;7.944;2023-05-07T09:24:35;3.70;;;3.40;;
16246;SDS011;8231;50.866;7.944;2023-05-07T09:27:07;4.75;;;3.67;;
16246;SDS011;8231;50.866;7.944;2023-05-07T09:29:41;4.78;;;3.60;;
16246;SDS011;8231;50.866;7.944;2023-05-07T09:32:13;3.88;;;3.50;;
16246;SDS011;8231;50.866;7.944;2023-05-07T09:34:43;3.90;;;3.53;;
16246;SDS011;8231;50.866;7.944;2023-05-07T09:37:13;5.30;;;3.88;;
16246;SDS011;8231;50.866;7.944;2023-05-07T09:39:43;6.32;;;3.83;;
16246;SDS011;8231;50.866;7.944;2023-05-07T09:42:15;4.30;;;3.90;;
16246;SDS011;8231;50.866;7.944;2023-05-07T09:44:44;3.63;;;3.33;;
16246;SDS011;8231;50.866;7.944;2023-05-07T09:47:18;4.22;;;3.83;;
16246;SDS011;8231;50.866;7.944;2023-05-07T09:49:52;3.55;;;3.33;;
16246;SDS011;8231;50.866;7.944;2023-05-07T09:52:25;3.55;;;3.17;;
16246;SDS011;8231;50.866;7.944;2023-05-07T09:55:01;3.55;;;3.25;;
16246;SDS011;8231;50.866;7.944;2023-05-07T09:57:32;3.90;;;3.20;;
16246;SDS011;8231;50.866;7.944;2023-05-07T10:00:05;5.78;;;3.75;;
16246;SDS011;8231;50.866;7.944;2023-05-07T10:02:48;4.20;;;3.67;;
16246;SDS011;8231;50.866;7.944;2023-05-07T10:05:24;4.13;;;3.33;;
16246;SDS011;8231;50.866;7.944;2023-05-07T10:07:57;3.30;;;3.00;;
16246;SDS011;8231;50.866;7.944;2023-05-07T10:10:30;3.10;;;2.80;;
16246;SDS011;8231;50.866;7.944;2023-05-07T10:13:00;2.80;;;2.60;;
16246;SDS011;8231;50.866;7.944;2023-05-07T10:15:33;3.22;;;2.78;;
16246;SDS011;8231;50.866;7.944;2023-05-07T10:18:03;5.93;;;2.70;;
16246;SDS011;8231;50.866;7.944;2023-05-07T10:20:33;2.97;;;2.78;;
16246;SDS011;8231;50.866;7.944;2023-05-07T10:23:05;3.25;;;3.00;;
16246;SDS011;8231;50.866;7.944;2023-05-07T10:25:41;3.85;;;3.55;;
16246;SDS011;8231;50.866;7.944;2023-05-07T10:28:16;4.68;;;3.13;;
16246;SDS011;8231;50.866;7.944;2023-05-07T10:30:49;3.20;;;3.00;;
16246;SDS011;8231;50.866;7.944;2023-05-07T10:33:36;5.05;;;4.45;;
16246;SDS011;8231;50.866;7.944;2023-05-07T10:36:07;3.72;;;3.42;;
16246;SDS011;8231;50.866;7.944;2023-05-07T10:38:37;3.78;;;3.25;;
16246;SDS011;8231;50.866;7.944;2023-05-07T10:41:07;5.00;;;3.00;;
16246;SDS011;8231;50.866;7.944;2023-05-07T10:43:39;3.40;;;3.10;;
16246;SDS011;8231;50.866;7.944;2023-05-07T10:46:14;4.07;;;3.78;;
16246;SDS011;8231;50.866;7.944;2023-05-07T10:49:11;2.85;;;2.60;;
16246;SDS011;8231;50.866;7.944;2023-05-07T10:52:12;3.67;;;2.42;;
16246;SDS011;8231;50.866;7.944;2023-05-07T10:58:22;2.38;;;2.25;;
16246;SDS011;8231;50.866;7.944;2023-05-07T11:01:07;1.98;;;1.88;;
16246;SDS011;8231;50.866;7.944;2023-05-07T11:04:12;3.47;;;2.72;;
16246;SDS011;8231;50.866;7.944;2023-05-07T11:06:53;2.47;;;2.28;;
16246;SDS011;8231;50.866;7.944;2023-05-07T11:10:05;2.72;;;2.53;;
16246;SDS011;8231;50.866;7.944;2023-05-07T11:12:55;4.05;;;2.47;;
16246;SDS011;8231;50.866;7.944;2023-05-07T11:15:44;2.42;;;2.22;;
16246;SDS011;8231;50.866;7.944;2023-05-07T11:18:27;4.43;;;2.30;;
16246;SDS011;8231;50.866;7.944;2023-05-07T11:24:15;2.47;;;1.90;;
16246;SDS011;8231;50.866;7.944;2023-05-07T11:27:03;2.00;;;1.90;;
16246;SDS011;8231;50.866;7.944;2023-05-07T11:29:33;3.03;;;2.70;;
16246;SDS011;8231;50.866;7.944;2023-05-07T11:32:12;4.00;;;2.90;;
16246;SDS011;8231;50.866;7.944;2023-05-07T11:34:51;2.75;;;2.40;;
16246;SDS011;8231;50.866;7.944;2023-05-07T11:37:19;2.95;;;2.38;;
16246;SDS011;8231;50.866;7.944;2023-05-07T11:40:02;2.40;;;2.20;;
16246;SDS011;8231;50.866;7.944;2023-05-07T11:42:32;2.83;;;1.90;;
16246;SDS011;8231;50.866;7.944;2023-05-07T11:45:03;3.17;;;2.33;;
16246;SDS011;8231;50.866;7.944;2023-05-07T11:47:33;2.30;;;2.10;;
16246;SDS011;8231;50.866;7.944;2023-05-07T11:50:02;3.13;;;2.70;;
16246;SDS011;8231;50.866;7.944;2023-05-07T11:52:32;2.40;;;2.20;;
16246;SDS011;8231;50.866;7.944;2023-05-07T11:55:01;4.03;;;2.80;;
16246;SDS011;8231;50.866;7.944;2023-05-07T11:57:32;3.40;;;2.60;;
16246;SDS011;8231;50.866;7.944;2023-05-07T12:00:01;3.45;;;2.40;;
16246;SDS011;8231;50.866;7.944;2023-05-07T12:02:41;4.60;;;2.83;;
16246;SDS011;8231;50.866;7.944;2023-05-07T12:05:10;3.17;;;2.83;;
16246;SDS011;8231;50.866;7.944;2023-05-07T12:07:39;3.53;;;2.60;;
16246;SDS011;8231;50.866;7.944;2023-05-07T12:10:09;3.72;;;2.83;;
16246;SDS011;8231;50.866;7.944;2023-05-07T12:12:39;3.47;;;3.17;;
16246;SDS011;8231;50.866;7.944;2023-05-07T12:15:10;4.28;;;3.38;;
16246;SDS011;8231;50.866;7.944;2023-05-07T12:17:39;7.65;;;4.53;;
16246;SDS011;8231;50.866;7.944;2023-05-07T12:20:08;4.95;;;3.88;;
16246;SDS011;8231;50.866;7.944;2023-05-07T12:22:38;5.20;;;4.65;;
16246;SDS011;8231;50.866;7.944;2023-05-07T12:25:06;4.20;;;3.80;;
16246;SDS011;8231;50.866;7.944;2023-05-07T12:27:36;7.38;;;4.85;;
16246;SDS011;8231;50.866;7.944;2023-05-07T12:30:08;7.03;;;4.30;;
16246;SDS011;8231;50.866;7.944;2023-05-07T12:32:39;6.00;;;3.67;;
16246;SDS011;8231;50.866;7.944;2023-05-07T12:35:08;5.35;;;4.82;;
16246;SDS011;8231;50.866;7.944;2023-05-07T12:37:36;5.65;;;4.18;;
16246;SDS011;8231;50.866;7.944;2023-05-07T12:40:06;7.32;;;4.63;;
16246;SDS011;8231;50.866;7.944;2023-05-07T12:42:35;4.85;;;4.18;;
16246;SDS011;8231;50.866;7.944;2023-05-07T12:45:08;4.85;;;4.00;;
16246;SDS011;8231;50.866;7.944;2023-05-07T12:47:43;5.82;;;4.45;;
16246;SDS011;8231;50.866;7.944;2023-05-07T12:50:12;5.68;;;5.00;;
16246;SDS011;8231;50.866;7.944;2023-05-07T12:52:42;6.38;;;5.80;;
16246;SDS011;8231;50.866;7.944;2023-05-07T12:55:12;5.65;;;5.15;;
16246;SDS011;8231;50.866;7.944;2023-05-07T12:57:43;7.68;;;5.65;;
16246;SDS011;8231;50.866;7.944;2023-05-07T13:00:15;9.32;;;6.60;;
16246;SDS011;8231;50.866;7.944;2023-05-07T13:02:43;8.70;;;6.78;;
16246;SDS011;8231;50.866;7.944;2023-05-07T13:05:12;8.40;;;6.68;;
16246;SDS011;8231;50.866;7.944;2023-05-07T13:07:41;11.23;;;8.05;;
16246;SDS011;8231;50.866;7.944;2023-05-07T13:10:21;8.95;;;7.50;;
16246;SDS011;8231;50.866;7.944;2023-05-07T13:12:49;8.68;;;7.85;;
16246;SDS011;8231;50.866;7.944;2023-05-07T13:15:19;8.85;;;7.95;;
16246;SDS011;8231;50.866;7.944;2023-05-07T13:17:48;9.30;;;8.50;;
16246;SDS011;8231;50.866;7.944;2023-05-07T13:20:16;9.30;;;8.40;;
16246;SDS011;8231;50.866;7.944;2023-05-07T13:22:45;9.43;;;8.60;;
16246;SDS011;8231;50.866;7.944;2023-05-07T13:25:13;9.23;;;8.45;;
16246;SDS011;8231;50.866;7.944;2023-05-07T13:27:41;8.43;;;7.50;;
16246;SDS011;8231;50.866;7.944;2023-05-07T13:30:10;8.05;;;7.07;;
16246;SDS011;8231;50.866;7.944;2023-05-07T13:32:39;8.25;;;7.45;;
16246;SDS011;8231;50.866;7.944;2023-05-07T13:35:08;8.60;;;7.80;;
16246;SDS011;8231;50.866;7.944;2023-05-07T13:37:37;8.25;;;7.45;;
16246;SDS011;8231;50.866;7.944;2023-05-07T13:40:06;8.38;;;7.60;;
16246;SDS011;8231;50.866;7.944;2023-05-07T13:42:35;8.43;;;7.15;;
16246;SDS011;8231;50.866;7.944;2023-05-07T13:45:05;8.15;;;7.35;;
16246;SDS011;8231;50.866;7.944;2023-05-07T13:47:34;7.10;;;6.50;;
16246;SDS011;8231;50.866;7.944;2023-05-07T13:50:07;7.80;;;7.10;;
16246;SDS011;8231;50.866;7.944;2023-05-07T13:52:38;7.75;;;7.05;;
16246;SDS011;8231;50.866;7.944;2023-05-07T13:55:07;7.88;;;7.20;;
16246;SDS011;8231;50.866;7.944;2023-05-07T13:57:36;7.47;;;6.88;;
16246;SDS011;8231;50.866;7.944;2023-05-07T14:00:05;7.40;;;6.80;;
16246;SDS011;8231;50.866;7.944;2023-05-07T14:02:40;7.93;;;7.22;;
16246;SDS011;8231;50.866;7.944;2023-05-07T14:05:10;8.48;;;6.90;;
16246;SDS011;8231;50.866;7.944;2023-05-07T14:07:40;7.47;;;6.78;;
16246;SDS011;8231;50.866;7.944;2023-05-07T14:10:08;8.20;;;7.43;;
16246;SDS011;8231;50.866;7.944;2023-05-07T14:12:42;7.55;;;5.90;;
16246;SDS011;8231;50.866;7.944;2023-05-07T14:15:12;6.45;;;5.93;;
16246;SDS011;8231;50.866;7.944;2023-05-07T14:17:41;7.07;;;6.47;;
16246;SDS011;8231;50.866;7.944;2023-05-07T14:20:11;10.45;;;6.65;;
16246;SDS011;8231;50.866;7.944;2023-05-07T14:22:40;8.60;;;7.15;;
16246;SDS011;8231;50.866;7.944;2023-05-07T14:25:08;6.85;;;6.30;;
16246;SDS011;8231;50.866;7.944;2023-05-07T14:27:37;10.77;;;6.78;;
16246;SDS011;8231;50.866;7.944;2023-05-07T14:30:06;7.07;;;6.38;;
16246;SDS011;8231;50.866;7.944;2023-05-07T14:32:35;6.95;;;6.15;;
16246;SDS011;8231;50.866;7.944;2023-05-07T14:35:04;7.15;;;6.00;;
16246;SDS011;8231;50.866;7.944;2023-05-07T14:37:34;6.85;;;5.20;;
16246;SDS011;8231;50.866;7.944;2023-05-07T14:40:03;6.95;;;5.72;;
16246;SDS011;8231;50.866;7.944;2023-05-07T14:42:32;7.05;;;5.95;;
16246;SDS011;8231;50.866;7.944;2023-05-07T14:45:01;8.65;;;5.70;;
16246;SDS011;8231;50.866;7.944;2023-05-07T14:47:29;8.35;;;6.50;;
16246;SDS011;8231;50.866;7.944;2023-05-07T14:49:58;7.03;;;6.05;;
16246;SDS011;8231;50.866;7.944;2023-05-07T14:52:27;5.78;;;5.25;;
16246;SDS011;8231;50.866;7.944;2023-05-07T14:54:57;5.55;;;5.15;;
16246;SDS011;8231;50.866;7.944;2023-05-07T14:57:26;6.28;;;4.75;;
16246;SDS011;8231;50.866;7.944;2023-05-07T14:59:58;7.00;;;5.57;;
16246;SDS011;8231;50.866;7.944;2023-05-07T15:02:27;6.28;;;5.50;;
16246;SDS011;8231;50.866;7.944;2023-05-07T15:04:55;6.07;;;5.47;;
16246;SDS011;8231;50.866;7.944;2023-05-07T15:07:23;7.22;;;5.50;;
16246;SDS011;8231;50.866;7.944;2023-05-07T15:09:52;7.18;;;5.70;;
16246;SDS011;8231;50.866;7.944;2023-05-07T15:12:22;5.90;;;5.40;;
16246;SDS011;8231;50.866;7.944;2023-05-07T15:14:50;5.72;;;5.22;;
16246;SDS011;8231;50.866;7.944;2023-05-07T15:17:19;6.65;;;6.10;;
16246;SDS011;8231;50.866;7.944;2023-05-07T15:19:47;6.10;;;5.50;;
16246;SDS011;8231;50.866;7.944;2023-05-07T15:22:16;6.93;;;5.65;;
16246;SDS011;8231;50.866;7.944;2023-05-07T15:24:44;7.32;;;6.57;;
16246;SDS011;8231;50.866;7.944;2023-05-07T15:27:12;7.35;;;6.65;;
16246;SDS011;8231;50.866;7.944;2023-05-07T15:29:42;6.82;;;6.25;;
16246;SDS011;8231;50.866;7.944;2023-05-07T15:32:10;7.80;;;6.95;;
16246;SDS011;8231;50.866;7.944;2023-05-07T15:34:39;7.90;;;6.88;;
16246;SDS011;8231;50.866;7.944;2023-05-07T15:37:10;8.38;;;7.53;;
16246;SDS011;8231;50.866;7.944;2023-05-07T15:39:38;7.95;;;7.20;;
16246;SDS011;8231;50.866;7.944;2023-05-07T15:42:06;9.50;;;7.75;;
16246;SDS011;8231;50.866;7.944;2023-05-07T15:44:35;8.93;;;8.07;;
16246;SDS011;8231;50.866;7.944;2023-05-07T15:47:04;8.93;;;8.07;;
16246;SDS011;8231;50.866;7.944;2023-05-07T15:49:33;9.50;;;8.10;;